sensor_id;sensor_type;location;lat;lon;timestamp;temperature;humidity
65235;DHT22;51820;48.374;10.930;2022-09-25T00:00:08;13.60;78.30
65235;DHT22;51820;48.374;10.930;2022-09-25T00:02:36;11.30;90.90
65235;DHT22;51820;48.374;10.930;2022-09-25T00:05:07;12.40;90.80
65235;DHT22;51820;48.374;10.930;2022-09-25T00:10:08;13.60;76.90
65235;DHT22;51820;48.374;10.930;2022-09-25T00:15:07;18.00;92.00
65235;DHT22;51820;48.374;10.930;2022-09-25T00:18:22;13.50;77.70
65235;DHT22;51820;48.374;10.930;2022-09-25T00:21:26;13.40;77.30
65235;DHT22;51820;48.374;10.930;2022-09-25T00:26:32;13.30;76.90
65235;DHT22;51820;48.374;10.930;2022-09-25T00:31:33;11.90;90.60
65235;DHT22;51820;48.374;10.930;2022-09-25T00:34:04;13.30;76.80
65235;DHT22;51820;48.374;10.930;2022-09-25T00:36:33;17.80;92.00
65235;DHT22;51820;48.374;10.930;2022-09-25T00:41:34;13.30;76.70
65235;DHT22;51820;48.374;10.930;2022-09-25T00:44:03;13.30;76.60
65235;DHT22;51820;48.374;10.930;2022-09-25T00:49:22;13.30;76.70
65235;DHT22;51820;48.374;10.930;2022-09-25T00:51:55;13.30;76.70
65235;DHT22;51820;48.374;10.930;2022-09-25T00:54:27;13.30;76.40
65235;DHT22;51820;48.374;10.930;2022-09-25T00:57:02;13.30;76.40
65235;DHT22;51820;48.374;10.930;2022-09-25T00:59:34;13.40;76.40
65235;DHT22;51820;48.374;10.930;2022-09-25T01:04:35;13.40;76.30
65235;DHT22;51820;48.374;10.930;2022-09-25T01:12:06;13.40;75.90
65235;DHT22;51820;48.374;10.930;2022-09-25T01:14:35;11.20;89.90
65235;DHT22;51820;48.374;10.930;2022-09-25T01:17:06;13.40;77.10
65235;DHT22;51820;48.374;10.930;2022-09-25T01:19:48;13.40;76.10
65235;DHT22;51820;48.374;10.930;2022-09-25T01:22:32;13.40;76.20
65235;DHT22;51820;48.374;10.930;2022-09-25T01:25:10;13.40;76.10
65235;DHT22;51820;48.374;10.930;2022-09-25T01:27:50;13.30;76.20
65235;DHT22;51820;48.374;10.930;2022-09-25T01:30:25;13.30;76.40
65235;DHT22;51820;48.374;10.930;2022-09-25T01:32:58;13.30;77.20
65235;DHT22;51820;48.374;10.930;2022-09-25T01:35:34;13.30;76.40
65235;DHT22;51820;48.374;10.930;2022-09-25T01:38:21;13.30;76.40
65235;DHT22;51820;48.374;10.930;2022-09-25T01:40:55;13.30;76.40
65235;DHT22;51820;48.374;10.930;2022-09-25T01:43:31;13.30;76.50
65235;DHT22;51820;48.374;10.930;2022-09-25T01:46:07;13.30;76.50
65235;DHT22;51820;48.374;10.930;2022-09-25T01:48:39;13.30;76.60
65235;DHT22;51820;48.374;10.930;2022-09-25T01:51:14;13.70;76.80
65235;DHT22;51820;48.374;10.930;2022-09-25T01:53:47;13.30;76.70
65235;DHT22;51820;48.374;10.930;2022-09-25T01:56:20;13.30;77.10
65235;DHT22;51820;48.374;10.930;2022-09-25T01:58:55;13.30;76.70
65235;DHT22;51820;48.374;10.930;2022-09-25T02:01:28;12.60;76.40
65235;DHT22;51820;48.374;10.930;2022-09-25T02:04:02;13.30;76.70
65235;DHT22;51820;48.374;10.930;2022-09-25T02:09:05;13.30;76.70
65235;DHT22;51820;48.374;10.930;2022-09-25T02:11:37;13.30;76.60
65235;DHT22;51820;48.374;10.930;2022-09-25T02:14:12;13.40;76.60
65235;DHT22;51820;48.374;10.930;2022-09-25T02:16:47;13.40;76.40
65235;DHT22;51820;48.374;10.930;2022-09-25T02:22:07;13.30;76.50
65235;DHT22;51820;48.374;10.930;2022-09-25T02:24:39;13.40;76.40
65235;DHT22;51820;48.374;10.930;2022-09-25T02:32:12;13.30;76.30
65235;DHT22;51820;48.374;10.930;2022-09-25T02:39:40;13.30;76.20
65235;DHT22;51820;48.374;10.930;2022-09-25T02:42:19;13.30;76.10
65235;DHT22;51820;48.374;10.930;2022-09-25T02:45:09;13.00;90.50
65235;DHT22;51820;48.374;10.930;2022-09-25T02:47:50;13.30;76.30
65235;DHT22;51820;48.374;10.930;2022-09-25T02:50:25;13.20;76.30
65235;DHT22;51820;48.374;10.930;2022-09-25T02:53:03;13.30;76.10
65235;DHT22;51820;48.374;10.930;2022-09-25T02:55:38;13.30;76.40
65235;DHT22;51820;48.374;10.930;2022-09-25T02:58:12;13.30;75.70
65235;DHT22;51820;48.374;10.930;2022-09-25T03:00:45;13.30;75.60
65235;DHT22;51820;48.374;10.930;2022-09-25T03:03:17;13.20;75.60
65235;DHT22;51820;48.374;10.930;2022-09-25T03:05:47;13.20;75.60
65235;DHT22;51820;48.374;10.930;2022-09-25T03:08:17;13.20;75.80
65235;DHT22;51820;48.374;10.930;2022-09-25T03:11:06;10.60;89.30
65235;DHT22;51820;48.374;10.930;2022-09-25T03:13:37;13.20;75.60
65235;DHT22;51820;48.374;10.930;2022-09-25T03:16:09;12.20;90.10
65235;DHT22;51820;48.374;10.930;2022-09-25T03:18:40;13.10;75.40
65235;DHT22;51820;48.374;10.930;2022-09-25T03:23:37;10.60;89.00
65235;DHT22;51820;48.374;10.930;2022-09-25T03:31:04;13.00;75.30
65235;DHT22;51820;48.374;10.930;2022-09-25T03:33:34;13.00;75.10
65235;DHT22;51820;48.374;10.930;2022-09-25T03:36:07;13.00;75.20
65235;DHT22;51820;48.374;10.930;2022-09-25T03:38:37;13.00;75.30
65235;DHT22;51820;48.374;10.930;2022-09-25T03:41:05;17.50;91.40
65235;DHT22;51820;48.374;10.930;2022-09-25T03:46:04;13.00;75.60
65235;DHT22;51820;48.374;10.930;2022-09-25T03:48:33;11.20;89.90
65235;DHT22;51820;48.374;10.930;2022-09-25T03:53:32;12.30;90.00
65235;DHT22;51820;48.374;10.930;2022-09-25T03:56:01;15.80;90.80
65235;DHT22;51820;48.374;10.930;2022-09-25T03:58:29;10.60;88.60
65235;DHT22;51820;48.374;10.930;2022-09-25T04:03:28;12.90;75.50
65235;DHT22;51820;48.374;10.930;2022-09-25T04:05:58;13.00;75.50
65235;DHT22;51820;48.374;10.930;2022-09-25T04:10:58;16.80;91.10
65235;DHT22;51820;48.374;10.930;2022-09-25T04:13:29;13.00;75.20
65235;DHT22;51820;48.374;10.930;2022-09-25T04:16:00;13.10;75.30
65235;DHT22;51820;48.374;10.930;2022-09-25T04:18:30;13.00;75.00
65235;DHT22;51820;48.374;10.930;2022-09-25T04:20:59;13.00;75.30
65235;DHT22;51820;48.374;10.930;2022-09-25T04:25:58;12.10;90.00
65235;DHT22;51820;48.374;10.930;2022-09-25T04:30:54;12.30;90.20
65235;DHT22;51820;48.374;10.930;2022-09-25T04:33:26;13.00;75.70
65235;DHT22;51820;48.374;10.930;2022-09-25T04:41:10;13.00;76.20
65235;DHT22;51820;48.374;10.930;2022-09-25T04:46:10;13.00;76.50
65235;DHT22;51820;48.374;10.930;2022-09-25T04:56:12;13.10;76.90
65235;DHT22;51820;48.374;10.930;2022-09-25T04:58:44;13.10;77.30
65235;DHT22;51820;48.374;10.930;2022-09-25T05:08:39;15.90;91.70
65235;DHT22;51820;48.374;10.930;2022-09-25T05:13:38;13.20;77.20
65235;DHT22;51820;48.374;10.930;2022-09-25T05:16:07;12.60;90.80
65235;DHT22;51820;48.374;10.930;2022-09-25T05:28:30;13.10;77.40
65235;DHT22;51820;48.374;10.930;2022-09-25T05:31:00;13.10;77.10
65235;DHT22;51820;48.374;10.930;2022-09-25T05:35:59;12.30;90.70
65235;DHT22;51820;48.374;10.930;2022-09-25T05:41:00;13.10;77.10
65235;DHT22;51820;48.374;10.930;2022-09-25T05:46:00;13.10;77.10
65235;DHT22;51820;48.374;10.930;2022-09-25T05:55:56;13.20;77.20
65235;DHT22;51820;48.374;10.930;2022-09-25T05:58:26;13.10;77.10
65235;DHT22;51820;48.374;10.930;2022-09-25T06:00:55;11.90;90.40
65235;DHT22;51820;48.374;10.930;2022-09-25T06:03:25;13.10;76.80
65235;DHT22;51820;48.374;10.930;2022-09-25T06:05:55;11.50;90.20
65235;DHT22;51820;48.374;10.930;2022-09-25T06:13:22;13.10;77.00
65235;DHT22;51820;48.374;10.930;2022-09-25T06:15:51;13.10;77.10
65235;DHT22;51820;48.374;10.930;2022-09-25T06:18:21;13.10;76.90
65235;DHT22;51820;48.374;10.930;2022-09-25T06:20:57;13.10;76.80
65235;DHT22;51820;48.374;10.930;2022-09-25T06:30:54;13.00;77.10
65235;DHT22;51820;48.374;10.930;2022-09-25T06:35:52;13.10;76.80
65235;DHT22;51820;48.374;10.930;2022-09-25T06:38:21;17.60;91.60
65235;DHT22;51820;48.374;10.930;2022-09-25T06:45:58;12.40;90.70
65235;DHT22;51820;48.374;10.930;2022-09-25T06:50:59;13.00;77.30
65235;DHT22;51820;48.374;10.930;2022-09-25T06:55:56;13.10;77.80
65235;DHT22;51820;48.374;10.930;2022-09-25T06:58:26;13.00;77.90
65235;DHT22;51820;48.374;10.930;2022-09-25T07:06:13;11.90;90.80
65235;DHT22;51820;48.374;10.930;2022-09-25T07:11:12;13.20;77.90
65235;DHT22;51820;48.374;10.930;2022-09-25T07:16:11;13.30;77.60
65235;DHT22;51820;48.374;10.930;2022-09-25T07:21:54;11.80;90.40
65235;DHT22;51820;48.374;10.930;2022-09-25T07:24:22;12.70;90.50
65235;DHT22;51820;48.374;10.930;2022-09-25T07:31:51;13.30;76.40
65235;DHT22;51820;48.374;10.930;2022-09-25T07:39:34;13.40;76.70
65235;DHT22;51820;48.374;10.930;2022-09-25T07:54:36;11.10;89.10
65235;DHT22;51820;48.374;10.930;2022-09-25T08:09:37;13.30;75.90
65235;DHT22;51820;48.374;10.930;2022-09-25T08:12:12;13.30;76.00
65235;DHT22;51820;48.374;10.930;2022-09-25T08:14:43;13.40;76.00
65235;DHT22;51820;48.374;10.930;2022-09-25T08:25:15;13.40;75.60
65235;DHT22;51820;48.374;10.930;2022-09-25T08:32:55;13.30;76.00
65235;DHT22;51820;48.374;10.930;2022-09-25T08:37:57;13.30;76.20
65235;DHT22;51820;48.374;10.930;2022-09-25T08:40:31;13.40;76.30
65235;DHT22;51820;48.374;10.930;2022-09-25T08:43:02;13.40;76.30
65235;DHT22;51820;48.374;10.930;2022-09-25T08:45:35;13.30;76.10
65235;DHT22;51820;48.374;10.930;2022-09-25T08:48:24;13.30;75.90
65235;DHT22;51820;48.374;10.930;2022-09-25T08:56:12;13.30;76.10
65235;DHT22;51820;48.374;10.930;2022-09-25T08:58:50;13.30;76.60
65235;DHT22;51820;48.374;10.930;2022-09-25T09:01:22;13.30;77.80
65235;DHT22;51820;48.374;10.930;2022-09-25T09:03:55;13.30;76.70
65235;DHT22;51820;48.374;10.930;2022-09-25T09:06:28;13.30;76.50
65235;DHT22;51820;48.374;10.930;2022-09-25T09:09:02;12.20;90.10
65235;DHT22;51820;48.374;10.930;2022-09-25T09:11:35;13.40;76.70
65235;DHT22;51820;48.374;10.930;2022-09-25T09:14:09;13.40;76.40
65235;DHT22;51820;48.374;10.930;2022-09-25T09:16:42;13.40;76.30
65235;DHT22;51820;48.374;10.930;2022-09-25T09:21:48;13.40;75.80
65235;DHT22;51820;48.374;10.930;2022-09-25T09:24:24;13.40;76.80
65235;DHT22;51820;48.374;10.930;2022-09-25T09:27:16;13.40;75.70
65235;DHT22;51820;48.374;10.930;2022-09-25T09:30:00;13.40;75.90
65235;DHT22;51820;48.374;10.930;2022-09-25T09:32:59;13.40;75.20
65235;DHT22;51820;48.374;10.930;2022-09-25T09:35:45;13.40;74.80
65235;DHT22;51820;48.374;10.930;2022-09-25T09:38:24;13.40;74.80
65235;DHT22;51820;48.374;10.930;2022-09-25T09:41:22;13.40;74.90
65235;DHT22;51820;48.374;10.930;2022-09-25T09:44:10;13.30;74.90
65235;DHT22;51820;48.374;10.930;2022-09-25T09:46:45;13.30;74.90
65235;DHT22;51820;48.374;10.930;2022-09-25T09:49:19;13.30;75.30
65235;DHT22;51820;48.374;10.930;2022-09-25T09:52:12;13.30;74.90
65235;DHT22;51820;48.374;10.930;2022-09-25T09:55:01;13.40;74.90
65235;DHT22;51820;48.374;10.930;2022-09-25T09:57:42;13.40;76.00
65235;DHT22;51820;48.374;10.930;2022-09-25T10:00:15;13.40;75.00
65235;DHT22;51820;48.374;10.930;2022-09-25T10:02:47;13.40;75.10
65235;DHT22;51820;48.374;10.930;2022-09-25T10:05:23;13.40;76.00
65235;DHT22;51820;48.374;10.930;2022-09-25T10:10:27;13.50;74.50
65235;DHT22;51820;48.374;10.930;2022-09-25T10:12:59;13.50;74.40
65235;DHT22;51820;48.374;10.930;2022-09-25T10:15:35;13.60;74.30
65235;DHT22;51820;48.374;10.930;2022-09-25T10:20:41;13.60;74.20
65235;DHT22;51820;48.374;10.930;2022-09-25T10:23:37;13.60;74.10
65235;DHT22;51820;48.374;10.930;2022-09-25T10:26:23;13.60;74.40
65235;DHT22;51820;48.374;10.930;2022-09-25T10:31:26;14.80;74.70
65235;DHT22;51820;48.374;10.930;2022-09-25T10:34:01;13.70;74.40
65235;DHT22;51820;48.374;10.930;2022-09-25T10:36:39;13.70;76.50
65235;DHT22;51820;48.374;10.930;2022-09-25T10:39:28;13.70;73.80
65235;DHT22;51820;48.374;10.930;2022-09-25T10:42:30;13.80;73.90
65235;DHT22;51820;48.374;10.930;2022-09-25T10:47:30;13.80;74.10
65235;DHT22;51820;48.374;10.930;2022-09-25T10:50:19;13.90;73.80
65235;DHT22;51820;48.374;10.930;2022-09-25T10:57:16;13.90;73.40
65235;DHT22;51820;48.374;10.930;2022-09-25T10:59:52;13.90;73.00
65235;DHT22;51820;48.374;10.930;2022-09-25T11:02:31;14.00;74.10
65235;DHT22;51820;48.374;10.930;2022-09-25T11:05:02;13.30;86.20
65235;DHT22;51820;48.374;10.930;2022-09-25T11:07:32;12.80;86.20
65235;DHT22;51820;48.374;10.930;2022-09-25T11:15:04;14.00;72.10
65235;DHT22;51820;48.374;10.930;2022-09-25T11:17:42;14.00;72.20
65235;DHT22;51820;48.374;10.930;2022-09-25T11:20:24;12.50;85.50
65235;DHT22;51820;48.374;10.930;2022-09-25T11:23:20;14.10;72.10
65235;DHT22;51820;48.374;10.930;2022-09-25T11:25:55;14.10;72.00
65235;DHT22;51820;48.374;10.930;2022-09-25T11:28:42;14.20;72.30
65235;DHT22;51820;48.374;10.930;2022-09-25T11:31:16;14.20;72.40
65235;DHT22;51820;48.374;10.930;2022-09-25T11:33:55;14.20;72.00
65235;DHT22;51820;48.374;10.930;2022-09-25T11:36:27;14.30;72.30
65235;DHT22;51820;48.374;10.930;2022-09-25T11:39:01;13.90;71.70
65235;DHT22;51820;48.374;10.930;2022-09-25T11:41:52;14.30;71.10
65235;DHT22;51820;48.374;10.930;2022-09-25T11:44:28;14.40;71.10
65235;DHT22;51820;48.374;10.930;2022-09-25T11:47:11;14.40;71.50
65235;DHT22;51820;48.374;10.930;2022-09-25T11:49:48;14.50;71.10
65235;DHT22;51820;48.374;10.930;2022-09-25T11:52:24;14.50;72.90
65235;DHT22;51820;48.374;10.930;2022-09-25T11:55:19;14.50;71.00
65235;DHT22;51820;48.374;10.930;2022-09-25T11:57:58;14.60;71.30
65235;DHT22;51820;48.374;10.930;2022-09-25T12:00:35;14.60;70.40
65235;DHT22;51820;48.374;10.930;2022-09-25T12:03:23;14.70;69.70
65235;DHT22;51820;48.374;10.930;2022-09-25T12:06:31;14.70;70.10
65235;DHT22;51820;48.374;10.930;2022-09-25T12:09:22;14.70;69.80
65235;DHT22;51820;48.374;10.930;2022-09-25T12:12:03;14.80;69.00
65235;DHT22;51820;48.374;10.930;2022-09-25T12:14:40;14.80;68.60
65235;DHT22;51820;48.374;10.930;2022-09-25T12:17:16;14.70;68.10
65235;DHT22;51820;48.374;10.930;2022-09-25T12:19:56;14.90;69.20
65235;DHT22;51820;48.374;10.930;2022-09-25T12:22:42;14.90;66.70
65235;DHT22;51820;48.374;10.930;2022-09-25T12:25:26;14.90;66.90
65235;DHT22;51820;48.374;10.930;2022-09-25T12:28:02;15.50;67.90
65235;DHT22;51820;48.374;10.930;2022-09-25T12:30:39;15.00;67.90
65235;DHT22;51820;48.374;10.930;2022-09-25T12:33:21;15.10;67.10
65235;DHT22;51820;48.374;10.930;2022-09-25T12:35:57;16.60;68.40
65235;DHT22;51820;48.374;10.930;2022-09-25T12:38:39;15.10;67.30
65235;DHT22;51820;48.374;10.930;2022-09-25T12:41:13;15.10;66.10
65235;DHT22;51820;48.374;10.930;2022-09-25T12:43:51;15.10;66.90
65235;DHT22;51820;48.374;10.930;2022-09-25T12:46:27;15.20;69.10
65235;DHT22;51820;48.374;10.930;2022-09-25T12:49:03;15.30;68.80
65235;DHT22;51820;48.374;10.930;2022-09-25T12:51:40;15.40;65.70
65235;DHT22;51820;48.374;10.930;2022-09-25T12:54:21;15.50;65.50
65235;DHT22;51820;48.374;10.930;2022-09-25T12:56:55;15.60;65.00
65235;DHT22;51820;48.374;10.930;2022-09-25T12:59:29;15.70;65.60
65235;DHT22;51820;48.374;10.930;2022-09-25T13:02:08;15.80;65.10
65235;DHT22;51820;48.374;10.930;2022-09-25T13:04:51;15.90;64.10
65235;DHT22;51820;48.374;10.930;2022-09-25T13:07:31;16.00;63.70
65235;DHT22;51820;48.374;10.930;2022-09-25T13:10:14;16.00;63.40
65235;DHT22;51820;48.374;10.930;2022-09-25T13:12:46;16.00;64.10
65235;DHT22;51820;48.374;10.930;2022-09-25T13:15:19;16.10;63.90
65235;DHT22;51820;48.374;10.930;2022-09-25T13:20:44;16.10;63.50
65235;DHT22;51820;48.374;10.930;2022-09-25T13:23:26;16.10;62.60
65235;DHT22;51820;48.374;10.930;2022-09-25T13:26:09;16.10;63.20
65235;DHT22;51820;48.374;10.930;2022-09-25T13:28:48;16.10;62.70
65235;DHT22;51820;48.374;10.930;2022-09-25T13:31:22;16.10;61.50
65235;DHT22;51820;48.374;10.930;2022-09-25T13:34:00;16.10;62.50
65235;DHT22;51820;48.374;10.930;2022-09-25T13:36:47;16.20;61.20
65235;DHT22;51820;48.374;10.930;2022-09-25T13:39:25;16.20;61.10
65235;DHT22;51820;48.374;10.930;2022-09-25T13:46:36;16.30;60.50
65235;DHT22;51820;48.374;10.930;2022-09-25T13:49:32;16.30;61.60
65235;DHT22;51820;48.374;10.930;2022-09-25T13:59:37;16.40;61.00
65235;DHT22;51820;48.374;10.930;2022-09-25T14:02:44;16.30;61.20
65235;DHT22;51820;48.374;10.930;2022-09-25T14:05:18;16.40;63.00
65235;DHT22;51820;48.374;10.930;2022-09-25T14:07:50;15.00;60.60
65235;DHT22;51820;48.374;10.930;2022-09-25T14:10:21;17.50;61.60
65235;DHT22;51820;48.374;10.930;2022-09-25T14:15:27;16.30;63.10
65235;DHT22;51820;48.374;10.930;2022-09-25T14:18:05;16.30;62.10
65235;DHT22;51820;48.374;10.930;2022-09-25T14:20:41;16.30;62.80
65235;DHT22;51820;48.374;10.930;2022-09-25T14:23:14;16.40;63.30
65235;DHT22;51820;48.374;10.930;2022-09-25T14:25:46;15.80;75.70
65235;DHT22;51820;48.374;10.930;2022-09-25T14:28:26;16.40;62.80
65235;DHT22;51820;48.374;10.930;2022-09-25T14:31:05;16.40;62.50
65235;DHT22;51820;48.374;10.930;2022-09-25T14:34:13;16.40;61.70
65235;DHT22;51820;48.374;10.930;2022-09-25T14:37:07;16.40;61.90
65235;DHT22;51820;48.374;10.930;2022-09-25T14:39:43;18.50;64.40
65235;DHT22;51820;48.374;10.930;2022-09-25T14:42:31;15.20;75.10
65235;DHT22;51820;48.374;10.930;2022-09-25T14:45:49;15.90;75.20
65235;DHT22;51820;48.374;10.930;2022-09-25T14:48:25;16.50;61.90
65235;DHT22;51820;48.374;10.930;2022-09-25T14:50:59;16.50;62.20
65235;DHT22;51820;48.374;10.930;2022-09-25T14:53:32;16.50;61.90
65235;DHT22;51820;48.374;10.930;2022-09-25T14:56:06;16.50;63.50
65235;DHT22;51820;48.374;10.930;2022-09-25T14:58:44;16.40;62.20
65235;DHT22;51820;48.374;10.930;2022-09-25T15:01:17;16.50;62.90
65235;DHT22;51820;48.374;10.930;2022-09-25T15:03:48;16.40;62.50
65235;DHT22;51820;48.374;10.930;2022-09-25T15:06:26;14.30;74.10
65235;DHT22;51820;48.374;10.930;2022-09-25T15:11:38;16.40;62.40
65235;DHT22;51820;48.374;10.930;2022-09-25T15:14:16;16.40;62.60
65235;DHT22;51820;48.374;10.930;2022-09-25T15:19:36;16.30;62.90
65235;DHT22;51820;48.374;10.930;2022-09-25T15:22:11;16.30;63.00
65235;DHT22;51820;48.374;10.930;2022-09-25T15:24:48;16.30;63.30
65235;DHT22;51820;48.374;10.930;2022-09-25T15:27:19;16.30;63.30
65235;DHT22;51820;48.374;10.930;2022-09-25T15:29:52;16.30;63.80
65235;DHT22;51820;48.374;10.930;2022-09-25T15:32:23;16.10;76.50
65235;DHT22;51820;48.374;10.930;2022-09-25T15:35:13;16.30;62.90
65235;DHT22;51820;48.374;10.930;2022-09-25T15:37:45;16.30;62.80
65235;DHT22;51820;48.374;10.930;2022-09-25T15:40:20;15.00;75.80
65235;DHT22;51820;48.374;10.930;2022-09-25T15:46:56;16.30;62.40
65235;DHT22;51820;48.374;10.930;2022-09-25T15:49:29;16.30;61.60
65235;DHT22;51820;48.374;10.930;2022-09-25T15:52:01;16.30;61.70
65235;DHT22;51820;48.374;10.930;2022-09-25T15:54:42;20.90;77.50
65235;DHT22;51820;48.374;10.930;2022-09-25T15:57:13;16.20;60.90
65235;DHT22;51820;48.374;10.930;2022-09-25T15:59:44;16.20;60.70
65235;DHT22;51820;48.374;10.930;2022-09-25T16:06:12;16.20;60.50
65235;DHT22;51820;48.374;10.930;2022-09-25T16:08:42;16.20;60.70
65235;DHT22;51820;48.374;10.930;2022-09-25T16:11:18;19.40;76.00
65235;DHT22;51820;48.374;10.930;2022-09-25T16:13:52;16.10;61.20
65235;DHT22;51820;48.374;10.930;2022-09-25T16:16:50;14.70;73.40
65235;DHT22;51820;48.374;10.930;2022-09-25T16:19:28;16.10;60.90
65235;DHT22;51820;48.374;10.930;2022-09-25T16:21:59;16.10;60.90
65235;DHT22;51820;48.374;10.930;2022-09-25T16:24:31;16.00;60.70
65235;DHT22;51820;48.374;10.930;2022-09-25T16:27:04;16.10;60.70
65235;DHT22;51820;48.374;10.930;2022-09-25T16:29:36;16.00;60.70
65235;DHT22;51820;48.374;10.930;2022-09-25T16:32:14;16.00;60.50
65235;DHT22;51820;48.374;10.930;2022-09-25T16:34:53;16.00;60.00
65235;DHT22;51820;48.374;10.930;2022-09-25T16:37:27;16.00;60.10
65235;DHT22;51820;48.374;10.930;2022-09-25T16:40:20;16.00;60.30
65235;DHT22;51820;48.374;10.930;2022-09-25T16:42:54;15.60;60.10
65235;DHT22;51820;48.374;10.930;2022-09-25T16:45:24;15.90;59.70
65235;DHT22;51820;48.374;10.930;2022-09-25T16:47:56;15.90;60.00
65235;DHT22;51820;48.374;10.930;2022-09-25T16:50:37;15.90;59.50
65235;DHT22;51820;48.374;10.930;2022-09-25T16:55:44;15.90;60.70
65235;DHT22;51820;48.374;10.930;2022-09-25T16:58:16;15.80;60.00
65235;DHT22;51820;48.374;10.930;2022-09-25T17:08:15;15.80;60.40
65235;DHT22;51820;48.374;10.930;2022-09-25T17:10:44;15.70;60.40
65235;DHT22;51820;48.374;10.930;2022-09-25T17:13:16;15.70;60.80
65235;DHT22;51820;48.374;10.930;2022-09-25T17:18:16;15.70;61.30
65235;DHT22;51820;48.374;10.930;2022-09-25T17:23:13;15.70;61.80
65235;DHT22;51820;48.374;10.930;2022-09-25T17:25:45;15.70;62.00
65235;DHT22;51820;48.374;10.930;2022-09-25T17:28:16;15.70;62.10
65235;DHT22;51820;48.374;10.930;2022-09-25T17:30:56;14.40;75.00
65235;DHT22;51820;48.374;10.930;2022-09-25T17:35:59;13.80;74.90
65235;DHT22;51820;48.374;10.930;2022-09-25T17:38:29;13.70;74.90
65235;DHT22;51820;48.374;10.930;2022-09-25T17:41:27;15.70;62.90
65235;DHT22;51820;48.374;10.930;2022-09-25T17:43:57;15.70;62.90
65235;DHT22;51820;48.374;10.930;2022-09-25T17:51:28;15.70;63.10
65235;DHT22;51820;48.374;10.930;2022-09-25T17:53:57;15.60;63.30
65235;DHT22;51820;48.374;10.930;2022-09-25T17:56:28;14.80;76.30
65235;DHT22;51820;48.374;10.930;2022-09-25T17:59:01;15.60;63.70
65235;DHT22;51820;48.374;10.930;2022-09-25T18:01:37;15.60;64.20
65235;DHT22;51820;48.374;10.930;2022-09-25T18:04:16;15.50;65.00
65235;DHT22;51820;48.374;10.930;2022-09-25T18:14:14;15.50;65.30
65235;DHT22;51820;48.374;10.930;2022-09-25T18:16:43;15.50;65.70
65235;DHT22;51820;48.374;10.930;2022-09-25T18:19:14;13.90;78.50
65235;DHT22;51820;48.374;10.930;2022-09-25T18:22:00;13.40;78.70
65235;DHT22;51820;48.374;10.930;2022-09-25T18:24:48;13.70;79.40
65235;DHT22;51820;48.374;10.930;2022-09-25T18:27:19;15.40;66.80
65235;DHT22;51820;48.374;10.930;2022-09-25T18:29:48;15.40;67.00
65235;DHT22;51820;48.374;10.930;2022-09-25T18:47:12;15.30;67.80
65235;DHT22;51820;48.374;10.930;2022-09-25T18:52:09;14.90;81.70
65235;DHT22;51820;48.374;10.930;2022-09-25T18:54:37;13.40;80.50
65235;DHT22;51820;48.374;10.930;2022-09-25T18:57:08;15.20;68.00
65235;DHT22;51820;48.374;10.930;2022-09-25T19:02:08;15.20;68.10
65235;DHT22;51820;48.374;10.930;2022-09-25T19:04:42;19.70;83.80
65235;DHT22;51820;48.374;10.930;2022-09-25T19:14:37;15.20;80.80
65235;DHT22;51820;48.374;10.930;2022-09-25T19:17:06;14.50;80.50
65235;DHT22;51820;48.374;10.930;2022-09-25T19:22:06;15.10;67.20
65235;DHT22;51820;48.374;10.930;2022-09-25T19:27:05;14.20;80.10
65235;DHT22;51820;48.374;10.930;2022-09-25T19:32:12;15.10;67.80
65235;DHT22;51820;48.374;10.930;2022-09-25T19:34:43;15.10;67.80
65235;DHT22;51820;48.374;10.930;2022-09-25T19:37:15;13.70;67.20
65235;DHT22;51820;48.374;10.930;2022-09-25T19:42:33;15.10;67.70
65235;DHT22;51820;48.374;10.930;2022-09-25T19:45:03;13.80;80.90
65235;DHT22;51820;48.374;10.930;2022-09-25T19:52:36;15.10;68.00
65235;DHT22;51820;48.374;10.930;2022-09-25T19:55:05;13.70;67.30
65235;DHT22;51820;48.374;10.930;2022-09-25T20:00:04;12.70;66.70
65235;DHT22;51820;48.374;10.930;2022-09-25T20:02:37;15.00;68.00
65235;DHT22;51820;48.374;10.930;2022-09-25T20:05:06;14.60;81.40
65235;DHT22;51820;48.374;10.930;2022-09-25T20:07:38;14.90;67.90
65235;DHT22;51820;48.374;10.930;2022-09-25T20:10:09;14.90;68.00
65235;DHT22;51820;48.374;10.930;2022-09-25T20:15:06;13.70;76.20
65235;DHT22;51820;48.374;10.930;2022-09-25T20:17:35;18.20;83.60
65235;DHT22;51820;48.374;10.930;2022-09-25T20:20:06;15.10;68.80
65235;DHT22;51820;48.374;10.930;2022-09-25T20:25:05;13.60;81.70
65235;DHT22;51820;48.374;10.930;2022-09-25T20:32:32;19.10;85.00
65235;DHT22;51820;48.374;10.930;2022-09-25T20:39:59;14.70;69.50
65235;DHT22;51820;48.374;10.930;2022-09-25T20:42:32;14.60;69.50
65235;DHT22;51820;48.374;10.930;2022-09-25T20:52:32;14.60;69.90
65235;DHT22;51820;48.374;10.930;2022-09-25T20:57:35;14.50;69.70
65235;DHT22;51820;48.374;10.930;2022-09-25T21:00:03;13.80;83.30
65235;DHT22;51820;48.374;10.930;2022-09-25T21:05:11;14.50;72.00
65235;DHT22;51820;48.374;10.930;2022-09-25T21:12:56;14.40;69.70
65235;DHT22;51820;48.374;10.930;2022-09-25T21:23:18;14.40;70.10
65235;DHT22;51820;48.374;10.930;2022-09-25T21:28:16;13.70;69.50
65235;DHT22;51820;48.374;10.930;2022-09-25T21:33:18;14.40;69.80
65235;DHT22;51820;48.374;10.930;2022-09-25T21:39:08;12.90;69.30
65235;DHT22;51820;48.374;10.930;2022-09-25T21:44:11;14.40;69.80
65235;DHT22;51820;48.374;10.930;2022-09-25T21:49:14;14.30;69.70
65235;DHT22;51820;48.374;10.930;2022-09-25T21:51:44;14.40;70.10
65235;DHT22;51820;48.374;10.930;2022-09-25T21:54:14;14.30;70.00
65235;DHT22;51820;48.374;10.930;2022-09-25T21:56:42;13.30;83.30
65235;DHT22;51820;48.374;10.930;2022-09-25T21:59:12;14.30;70.30
65235;DHT22;51820;48.374;10.930;2022-09-25T22:04:11;12.30;83.00
65235;DHT22;51820;48.374;10.930;2022-09-25T22:06:41;14.20;70.20
65235;DHT22;51820;48.374;10.930;2022-09-25T22:09:12;14.20;70.00
65235;DHT22;51820;48.374;10.930;2022-09-25T22:14:12;14.20;70.50
65235;DHT22;51820;48.374;10.930;2022-09-25T22:16:44;14.20;70.50
65235;DHT22;51820;48.374;10.930;2022-09-25T22:19:18;14.20;70.50
65235;DHT22;51820;48.374;10.930;2022-09-25T22:21:48;14.20;70.20
65235;DHT22;51820;48.374;10.930;2022-09-25T22:26:47;14.20;70.40
65235;DHT22;51820;48.374;10.930;2022-09-25T22:29:18;14.20;70.10
65235;DHT22;51820;48.374;10.930;2022-09-25T22:34:18;14.20;70.20
65235;DHT22;51820;48.374;10.930;2022-09-25T22:36:47;14.20;70.40
65235;DHT22;51820;48.374;10.930;2022-09-25T22:41:51;14.20;70.00